Time;durP1;ratioP1;P1;durP2;ratioP2;P2;SDS_P1;SDS_P2;PMS_P1;PMS_P2;Temp;Humidity;BMP_temperature;BMP_pressure;BME280_temperature;BME280_humidity;BME280_pressure;Samples;Min_cycle;Max_cycle;Signal;HPM_P1;HPM_P2
2021/10/27 00:01:19;;;;;;;4.80;1.80;;;;;;;12.08;78.00;101417.39;115486;1192;59860;-78
2021/10/27 00:03:45;;;;;;;5.20;1.70;;;;;;;12.07;78.09;101411.09;115655;1192;60313;-77
2021/10/27 00:06:12;;;;;;;4.70;1.60;;;;;;;12.07;78.18;101414.61;115700;1192;75638;-77
2021/10/27 00:08:39;;;;;;;6.50;2.20;;;;;;;12.08;78.19;101407.92;115821;1192;59726;-77
2021/10/27 00:11:06;;;;;;;7.80;2.20;;;;;;;12.09;78.24;101406.27;115841;1192;72234;-77
2021/10/27 00:13:33;;;;;;;4.70;1.60;;;;;;;12.08;78.21;101403.73;115724;1192;59822;-77
2021/10/27 00:16:02;;;;;;;7.30;1.70;;;;;;;12.07;78.30;101396.56;115810;1192;59930;-77
2021/10/27 00:18:29;;;;;;;5.20;1.90;;;;;;;12.04;78.23;101397.80;115824;1192;75489;-78
2021/10/27 00:20:56;;;;;;;11.20;1.90;;;;;;;12.03;78.43;101402.30;115789;1191;71959;-78
2021/10/27 00:23:22;;;;;;;4.40;1.40;;;;;;;12.01;78.36;101398.05;115568;1192;72587;-77
2021/10/27 00:25:49;;;;;;;4.30;1.20;;;;;;;12.01;78.48;101404.48;115720;1192;59834;-77
2021/10/27 00:28:15;;;;;;;3.90;1.60;;;;;;;12.00;78.53;101399.76;115705;1192;60119;-78
2021/10/27 00:30:42;;;;;;;5.80;1.80;;;;;;;12.01;78.65;101401.85;115650;1191;61677;-77
2021/10/27 00:33:08;;;;;;;9.40;1.90;;;;;;;12.00;78.71;101407.73;115817;1192;59840;-77
2021/10/27 00:35:35;;;;;;;5.30;1.60;;;;;;;12.00;78.80;101410.62;115816;1191;59938;-77
2021/10/27 00:38:02;;;;;;;4.10;1.70;;;;;;;12.00;78.61;101415.90;115817;1192;61699;-77
2021/10/27 00:40:29;;;;;;;9.30;1.80;;;;;;;12.01;78.67;101413.48;115659;1192;59990;-77
2021/10/27 00:42:56;;;;;;;6.60;2.00;;;;;;;12.02;78.79;101426.21;115809;1192;75405;-77
2021/10/27 00:45:23;;;;;;;9.90;2.30;;;;;;;12.02;78.91;101423.88;115793;1192;71678;-77
2021/10/27 00:47:50;;;;;;;7.80;2.20;;;;;;;12.03;78.83;101426.90;115433;1192;73034;-78
2021/10/27 00:50:17;;;;;;;4.90;1.90;;;;;;;12.03;78.87;101422.98;115817;1191;61344;-78
2021/10/27 00:52:44;;;;;;;5.00;1.60;;;;;;;12.03;78.88;101416.67;115796;1192;60064;-78
2021/10/27 00:55:11;;;;;;;4.50;1.80;;;;;;;12.02;79.00;101416.77;115740;1192;76594;-78
2021/10/27 00:57:38;;;;;;;6.70;1.80;;;;;;;12.02;78.76;101412.34;115774;1191;71172;-78
2021/10/27 01:00:07;;;;;;;5.40;2.00;;;;;;;12.02;78.75;101412.14;115843;1192;74111;-78
2021/10/27 01:02:33;;;;;;;6.20;2.20;;;;;;;12.02;79.07;101412.31;115799;1192;63188;-78
2021/10/27 01:05:00;;;;;;;4.90;1.90;;;;;;;12.03;78.97;101409.75;115797;1192;59758;-78
2021/10/27 01:07:27;;;;;;;3.90;1.80;;;;;;;12.03;79.10;101410.09;115889;1191;75281;-78
2021/10/27 01:09:54;;;;;;;7.40;1.80;;;;;;;12.01;78.96;101412.58;115470;1192;71062;-77
2021/10/27 01:12:21;;;;;;;2.70;1.40;;;;;;;12.00;79.15;101409.98;115625;1191;72602;-78
2021/10/27 01:14:48;;;;;;;3.70;1.50;;;;;;;12.00;79.36;101409.35;115704;1192;62182;-78
2021/10/27 01:17:17;;;;;;;6.70;2.00;;;;;;;11.99;79.54;101409.14;115722;1192;60212;-78
2021/10/27 01:19:59;;;;;;;4.50;1.50;;;;;;;11.99;79.66;101413.38;115792;1191;75245;-78
2021/10/27 01:22:32;;;;;;;4.50;1.60;;;;;;;11.99;79.70;101410.19;115795;1192;72585;-78
2021/10/27 01:25:00;;;;;;;4.70;1.50;;;;;;;11.98;79.73;101407.23;115782;1192;72775;-78
2021/10/27 01:27:28;;;;;;;5.30;2.20;;;;;;;11.98;80.08;101407.13;115794;1191;60006;-78
2021/10/27 01:29:55;;;;;;;5.00;1.90;;;;;;;11.96;79.97;101414.17;115639;1191;61429;-79
2021/10/27 01:32:31;;;;;;;7.00;2.10;;;;;;;11.96;80.28;101418.98;115690;1191;76425;-78
2021/10/27 01:34:59;;;;;;;4.60;2.30;;;;;;;11.96;80.43;101415.80;115872;1191;71461;-78
2021/10/27 01:37:25;;;;;;;5.60;2.20;;;;;;;11.97;80.46;101416.08;115439;1192;72782;-77
2021/10/27 01:39:53;;;;;;;5.20;2.50;;;;;;;11.96;80.56;101417.19;115706;1192;63264;-77
2021/10/27 01:42:20;;;;;;;5.00;2.20;;;;;;;11.95;80.86;101413.08;115691;1192;59944;-77
2021/10/27 01:44:47;;;;;;;6.60;1.90;;;;;;;11.94;80.84;101415.98;115812;1191;74460;-78
2021/10/27 01:47:15;;;;;;;3.80;1.90;;;;;;;11.94;81.18;101419.77;115821;1193;71040;-78
2021/10/27 01:49:42;;;;;;;6.50;2.60;;;;;;;11.93;81.22;101420.05;115765;1192;73821;-78
2021/10/27 01:52:08;;;;;;;5.90;3.10;;;;;;;11.92;81.58;101419.29;115410;1191;62036;-77
2021/10/27 01:54:35;;;;;;;7.50;2.60;;;;;;;11.93;81.69;101415.41;115680;1191;61670;-77
2021/10/27 01:57:02;;;;;;;8.90;3.40;;;;;;;11.93;81.97;101413.27;115515;1192;75550;-78
2021/10/27 01:59:29;;;;;;;5.90;3.00;;;;;;;11.94;82.08;101408.03;115827;1191;71167;-78
2021/10/27 02:01:55;;;;;;;4.60;2.60;;;;;;;11.93;82.19;101400.31;115797;1192;74414;-78
2021/10/27 02:04:22;;;;;;;7.30;3.10;;;;;;;11.94;82.37;101396.96;115804;1192;63250;-77
2021/10/27 02:06:49;;;;;;;5.80;3.30;;;;;;;11.92;82.74;101402.42;115783;1191;59837;-77
2021/10/27 02:09:15;;;;;;;9.40;3.60;;;;;;;11.93;82.71;101397.36;115815;1191;59884;-78
2021/10/27 02:11:41;;;;;;;9.90;3.50;;;;;;;11.93;82.92;101398.42;115833;1192;59719;-78
2021/10/27 02:14:09;;;;;;;5.50;3.50;;;;;;;11.91;83.33;101401.08;115503;1192;74398;-77
2021/10/27 02:16:35;;;;;;;8.90;4.10;;;;;;;11.91;83.38;101402.05;115666;1192;62989;-77
2021/10/27 02:19:04;;;;;;;8.80;4.50;;;;;;;11.90;83.68;101403.33;114751;1193;61724;-79
2021/10/27 02:21:30;;;;;;;7.10;4.10;;;;;;;11.91;83.80;101402.37;115447;1192;76299;-78
2021/10/27 02:23:57;;;;;;;5.40;3.10;;;;;;;11.91;83.81;101402.94;115776;1192;69793;-77
2021/10/27 02:26:24;;;;;;;7.80;3.70;;;;;;;11.91;83.91;101409.09;115811;1192;59669;-78
2021/10/27 02:28:51;;;;;;;9.90;4.90;;;;;;;11.91;84.09;101411.21;115795;1192;60903;-78
2021/10/27 02:31:19;;;;;;;10.00;5.00;;;;;;;11.93;84.22;101409.83;115847;1191;60369;-78
2021/10/27 02:33:45;;;;;;;9.80;5.20;;;;;;;11.93;84.38;101411.16;115838;1191;74263;-78
2021/10/27 02:36:12;;;;;;;7.50;4.40;;;;;;;11.95;84.18;101408.16;115706;1192;70267;-78
2021/10/27 02:38:42;;;;;;;8.50;4.40;;;;;;;11.95;84.36;101411.11;115314;1192;73828;-78
2021/10/27 02:41:11;;;;;;;9.00;4.90;;;;;;;11.95;84.65;101408.69;115594;1192;61794;-78
2021/10/27 02:43:39;;;;;;;15.90;5.30;;;;;;;11.94;84.98;101408.92;115767;1192;61297;-78
2021/10/27 02:46:09;;;;;;;8.80;4.10;;;;;;;11.95;84.98;101412.76;115817;1192;76415;-78
2021/10/27 02:48:36;;;;;;;10.60;5.90;;;;;;;11.92;85.14;101409.64;115903;1191;72208;-78
2021/10/27 02:51:03;;;;;;;12.80;5.50;;;;;;;11.95;85.03;101406.23;115866;1192;72499;-78
2021/10/27 02:53:30;;;;;;;9.40;6.30;;;;;;;11.94;85.34;101408.75;115770;1192;61978;-77
2021/10/27 02:55:56;;;;;;;12.50;6.00;;;;;;;11.94;85.49;101408.80;115772;1192;61279;-77
2021/10/27 02:58:23;;;;;;;9.60;4.50;;;;;;;11.94;85.50;101412.64;115705;1192;75458;-77
2021/10/27 03:00:51;;;;;;;12.90;5.90;;;;;;;11.94;85.67;101414.30;115596;1192;71261;-78
2021/10/27 03:03:19;;;;;;;9.30;4.80;;;;;;;11.94;85.68;101413.60;115660;1192;71077;-78
2021/10/27 03:05:45;;;;;;;11.50;5.60;;;;;;;11.94;85.74;101412.17;115120;1192;61970;-78
2021/10/27 03:08:12;;;;;;;14.00;5.90;;;;;;;11.93;86.21;101409.42;115742;1192;60294;-78
2021/10/27 03:10:38;;;;;;;10.90;5.20;;;;;;;11.94;86.11;101412.17;115839;1192;61533;-77
2021/10/27 03:13:05;;;;;;;10.70;6.10;;;;;;;11.92;86.27;101414.47;115891;1191;73104;-77
2021/10/27 03:15:32;;;;;;;14.10;6.30;;;;;;;11.93;86.23;101414.00;115784;1192;74982;-77
2021/10/27 03:17:59;;;;;;;7.40;4.40;;;;;;;11.93;86.58;101415.11;115801;1192;59845;-78
2021/10/27 03:20:26;;;;;;;11.30;5.60;;;;;;;11.92;86.76;101418.80;115843;1192;62698;-78
2021/10/27 03:22:52;;;;;;;13.30;6.90;;;;;;;11.92;86.97;101414.84;115823;1192;75415;-78
2021/10/27 03:25:19;;;;;;;10.90;6.20;;;;;;;11.93;87.00;101416.73;115237;1192;59770;-78
2021/10/27 03:27:46;;;;;;;14.80;6.50;;;;;;;11.93;87.11;101417.23;115713;1191;73590;-78
2021/10/27 03:30:13;;;;;;;11.00;5.70;;;;;;;11.93;87.26;101415.48;115565;1192;62917;-78
2021/10/27 03:32:39;;;;;;;11.10;4.80;;;;;;;11.93;87.59;101412.58;115835;1191;60185;-77
2021/10/27 03:35:06;;;;;;;12.40;6.60;;;;;;;11.94;87.67;101414.10;115873;1192;75461;-77
2021/10/27 03:37:32;;;;;;;10.10;5.10;;;;;;;11.94;87.75;101416.88;115840;1192;71033;-77
2021/10/27 03:39:59;;;;;;;12.30;6.10;;;;;;;11.96;87.89;101416.57;115770;1192;73518;-77
2021/10/27 03:42:26;;;;;;;12.20;6.50;;;;;;;11.97;87.86;101418.03;115813;1191;59753;-77
2021/10/27 03:44:52;;;;;;;11.00;5.50;;;;;;;11.98;87.75;101418.73;115463;1192;61798;-78
2021/10/27 03:47:19;;;;;;;9.60;4.80;;;;;;;12.00;87.74;101418.01;115732;1192;75981;-78
2021/10/27 03:49:46;;;;;;;11.50;6.20;;;;;;;12.03;87.89;101424.31;115675;1192;59729;-78
2021/10/27 03:52:13;;;;;;;11.90;5.90;;;;;;;12.02;88.01;101425.94;115890;1192;73762;-78
2021/10/27 03:54:40;;;;;;;12.20;6.60;;;;;;;12.02;87.87;101427.55;115855;1192;60447;-77
2021/10/27 03:57:06;;;;;;;8.20;4.70;;;;;;;12.03;88.23;101423.94;115877;1192;60049;-77
2021/10/27 03:59:33;;;;;;;9.70;5.10;;;;;;;12.02;88.63;101428.30;115832;1192;76569;-77
2021/10/27 04:02:00;;;;;;;10.70;5.30;;;;;;;11.99;89.23;101434.11;115863;1192;70671;-77
2021/10/27 04:04:26;;;;;;;10.00;5.20;;;;;;;11.97;89.59;101436.58;115834;1192;72506;-77
2021/10/27 04:06:53;;;;;;;13.40;5.90;;;;;;;11.95;89.80;101436.65;115620;1192;61723;-77
2021/10/27 04:09:20;;;;;;;14.30;6.40;;;;;;;11.95;89.78;101439.46;115605;1192;61126;-77
2021/10/27 04:11:46;;;;;;;9.10;5.60;;;;;;;11.95;90.08;101442.92;115838;1192;76742;-78
2021/10/27 04:14:13;;;;;;;12.80;5.50;;;;;;;11.96;89.97;101437.84;115733;1192;72124;-78
2021/10/27 04:16:39;;;;;;;8.50;5.20;;;;;;;11.97;89.90;101437.17;115858;1192;73616;-78
2021/10/27 04:19:07;;;;;;;11.70;5.10;;;;;;;11.98;89.85;101435.77;115785;1192;61913;-78
2021/10/27 04:21:33;;;;;;;6.90;4.30;;;;;;;12.00;89.47;101428.34;115667;1191;59893;-78
2021/10/27 04:24:00;;;;;;;8.40;4.20;;;;;;;12.01;89.63;101423.82;115552;1192;60232;-78
2021/10/27 04:26:26;;;;;;;8.60;4.20;;;;;;;12.02;89.57;101419.39;115622;1192;59915;-77
2021/10/27 04:28:53;;;;;;;10.10;4.40;;;;;;;12.04;89.61;101424.48;115734;1192;73152;-78
2021/10/27 04:31:21;;;;;;;9.50;4.60;;;;;;;12.06;89.67;101425.04;115826;1192;62551;-78
2021/10/27 04:33:48;;;;;;;7.00;4.70;;;;;;;12.09;89.65;101423.67;115869;1192;59847;-78
2021/10/27 04:36:17;;;;;;;7.90;3.90;;;;;;;12.12;89.64;101427.89;115873;1192;75355;-77
2021/10/27 04:38:43;;;;;;;8.20;3.30;;;;;;;12.15;89.60;101429.92;115865;1192;73142;-77
2021/10/27 04:41:11;;;;;;;6.40;4.20;;;;;;;12.17;89.41;101433.88;115459;1192;73668;-78
2021/10/27 04:43:38;;;;;;;6.80;3.80;;;;;;;12.20;89.44;101432.23;115647;1192;61853;-78
2021/10/27 04:46:05;;;;;;;8.00;3.80;;;;;;;12.20;89.27;101431.63;115838;1192;59983;-77
2021/10/27 04:48:32;;;;;;;8.20;4.20;;;;;;;12.21;89.48;101435.64;115810;1192;75434;-78
2021/10/27 04:50:58;;;;;;;6.80;3.90;;;;;;;12.21;89.33;101434.52;115887;1191;59670;-78
2021/10/27 04:53:25;;;;;;;7.70;3.50;;;;;;;12.22;89.12;101433.84;115874;1191;60091;-78
2021/10/27 04:55:52;;;;;;;8.40;3.90;;;;;;;12.23;89.30;101438.90;115874;1192;63035;-77
2021/10/27 04:58:21;;;;;;;8.40;4.50;;;;;;;12.24;89.29;101438.97;115671;1192;60195;-78
2021/10/27 05:00:48;;;;;;;10.40;3.90;;;;;;;12.26;89.23;101434.00;115600;1192;76441;-78
2021/10/27 05:03:15;;;;;;;4.80;3.30;;;;;;;12.26;89.20;101434.70;115625;1191;71852;-78
2021/10/27 05:05:47;;;;;;;9.40;4.30;;;;;;;12.26;89.14;101434.06;115847;1192;72394;-78
2021/10/27 05:08:17;;;;;;;6.20;4.10;;;;;;;12.26;89.10;101438.15;115832;1192;63058;-77
2021/10/27 05:10:44;;;;;;;7.20;4.30;;;;;;;12.25;89.03;101439.10;115883;1184;61413;-77
2021/10/27 05:13:10;;;;;;;6.50;4.30;;;;;;;12.24;89.22;101440.89;115893;1192;76420;-77
2021/10/27 05:15:37;;;;;;;9.70;4.80;;;;;;;12.24;89.00;101438.30;115858;1192;69655;-78
2021/10/27 05:18:04;;;;;;;9.90;4.80;;;;;;;12.23;89.12;101430.45;115729;1192;73662;-77
2021/10/27 05:20:31;;;;;;;9.50;4.10;;;;;;;12.20;89.25;101437.51;115341;1192;62952;-78
2021/10/27 05:22:58;;;;;;;7.50;4.00;;;;;;;12.18;89.44;101440.66;115583;1191;61073;-78
2021/10/27 05:25:24;;;;;;;6.10;3.80;;;;;;;12.17;89.58;101437.23;115793;1192;75343;-78
2021/10/27 05:27:51;;;;;;;9.10;3.80;;;;;;;12.16;89.40;101435.41;115811;1191;70688;-78
2021/10/27 05:30:18;;;;;;;8.20;4.10;;;;;;;12.16;89.37;101435.80;115804;1192;59949;-78
2021/10/27 05:32:44;;;;;;;7.60;4.20;;;;;;;12.14;89.55;101435.88;115839;1192;61781;-78
2021/10/27 05:35:11;;;;;;;5.90;3.50;;;;;;;12.13;89.52;101437.50;115789;1191;60383;-78
2021/10/27 05:37:37;;;;;;;9.10;3.20;;;;;;;12.13;89.47;101440.19;115876;1192;59785;-79
2021/10/27 05:40:05;;;;;;;7.50;3.60;;;;;;;12.12;89.41;101441.92;115893;1192;72036;-79
2021/10/27 05:42:32;;;;;;;5.40;3.00;;;;;;;12.10;89.33;101441.44;115650;1192;73252;-77
2021/10/27 05:45:03;;;;;;;6.20;3.50;;;;;;;12.10;89.24;101442.86;115415;1193;62521;-77
2021/10/27 05:47:30;;;;;;;7.70;3.60;;;;;;;12.09;89.26;101440.81;115870;1192;59998;-77
2021/10/27 05:50:23;;;;;;;8.40;3.50;;;;;;;12.10;89.07;101436.85;115867;1192;75491;-77
2021/10/27 05:55:35;;;;;;;;;;;;;;;12.10;89.20;101437.91;115883;1192;72933;-78
2021/10/27 05:58:03;;;;;;;6.20;3.40;;;;;;;12.09;89.22;101435.38;115800;1193;59911;-78
2021/10/27 06:00:31;;;;;;;4.50;2.50;;;;;;;12.08;89.27;101439.38;115363;1192;61308;-77
2021/10/27 06:02:58;;;;;;;5.90;3.20;;;;;;;12.07;89.20;101439.65;115539;1192;76455;-78
2021/10/27 06:05:25;;;;;;;6.00;3.20;;;;;;;12.07;89.14;101447.25;115893;1192;72180;-78
2021/10/27 06:07:52;;;;;;;5.50;3.40;;;;;;;12.07;89.19;101449.41;115876;1192;72261;-78
2021/10/27 06:10:20;;;;;;;8.00;3.30;;;;;;;12.06;89.29;101448.91;115886;1192;63044;-78
2021/10/27 06:12:50;;;;;;;6.20;3.20;;;;;;;12.07;89.23;101449.77;115913;1192;60141;-78
2021/10/27 06:15:18;;;;;;;6.40;2.80;;;;;;;12.07;89.18;101452.77;115909;1192;76553;-78
2021/10/27 06:17:46;;;;;;;4.20;2.40;;;;;;;12.07;89.26;101458.96;115878;1191;71022;-78
2021/10/27 06:20:13;;;;;;;5.00;2.90;;;;;;;12.07;89.15;101470.13;115522;1192;72529;-78
2021/10/27 06:22:41;;;;;;;5.20;2.90;;;;;;;12.07;89.24;101473.18;115455;1192;61514;-78
2021/10/27 06:25:10;;;;;;;6.60;3.00;;;;;;;12.07;89.45;101476.52;115622;1192;61257;-78
2021/10/27 06:27:37;;;;;;;4.80;3.20;;;;;;;12.07;89.51;101480.05;115903;1191;75642;-78
2021/10/27 06:30:10;;;;;;;7.40;3.10;;;;;;;12.06;89.72;101486.02;115868;1192;71521;-78
2021/10/27 06:32:45;;;;;;;4.70;3.20;;;;;;;12.07;90.10;101494.75;115896;1192;74147;-78
2021/10/27 06:35:19;;;;;;;5.10;2.80;;;;;;;12.09;90.29;101497.24;115857;1192;62170;-78
2021/10/27 06:46:47;;;;;;;6.50;2.80;;;;;;;12.07;91.14;101504.50;115872;1192;72121;-78
2021/10/27 06:48:49;;;;;;;7.60;3.00;;;;;;;12.06;91.52;101509.81;115694;1192;62918;-78
2021/10/27 06:51:16;;;;;;;5.10;2.40;;;;;;;12.04;91.40;101508.38;115899;1191;61334;-77
2021/10/27 06:53:43;;;;;;;7.80;3.40;;;;;;;12.03;91.41;101510.98;115896;1192;76793;-78
2021/10/27 06:56:13;;;;;;;4.10;2.90;;;;;;;12.01;91.69;101511.52;115883;1192;71242;-78
2021/10/27 07:01:19;;;;;;;8.10;3.40;;;;;;;11.99;92.06;101512.06;114948;1192;60974;-77
2021/10/27 07:06:39;;;;;;;8.10;3.10;;;;;;;11.99;92.06;101504.79;115510;1193;76625;-77
2021/10/27 07:17:20;;;;;;;6.10;3.00;;;;;;;11.99;92.63;101508.17;115760;1192;61070;-77
2021/10/27 07:19:47;;;;;;;7.60;3.30;;;;;;;11.98;92.83;101512.39;114854;1192;76622;-78
2021/10/27 07:22:14;;;;;;;5.40;3.60;;;;;;;11.96;93.18;101513.63;115811;1192;60596;-78
2021/10/27 07:24:44;;;;;;;6.00;3.70;;;;;;;11.95;93.64;101517.91;115879;1192;73789;-78
2021/10/27 07:27:12;;;;;;;5.80;3.30;;;;;;;11.94;93.70;101526.17;115863;1192;61944;-78
2021/10/27 07:29:41;;;;;;;4.50;2.60;;;;;;;11.92;93.96;101527.71;115836;1192;60991;-78
2021/10/27 07:32:12;;;;;;;8.80;3.80;;;;;;;11.91;94.15;101533.75;115882;1192;76418;-78
2021/10/27 07:34:45;;;;;;;7.00;3.40;;;;;;;11.91;94.32;101532.85;115868;1192;70057;-78
2021/10/27 07:40:32;;;;;;;6.00;3.60;;;;;;;11.90;94.50;101527.60;115398;1192;62030;-78
2021/10/27 07:43:04;;;;;;;5.90;3.20;;;;;;;11.92;94.47;101527.01;115174;1192;61737;-77
2021/10/27 07:45:31;;;;;;;6.90;3.40;;;;;;;11.93;94.80;101529.04;115876;1184;75548;-78
2021/10/27 07:48:02;;;;;;;6.80;4.00;;;;;;;11.95;94.44;101531.17;115831;1191;72367;-78
2021/10/27 07:50:30;;;;;;;6.30;3.50;;;;;;;11.96;94.51;101531.15;115862;1192;73636;-78
2021/10/27 07:53:02;;;;;;;5.70;3.90;;;;;;;11.99;94.45;101536.40;115883;1192;62001;-78
2021/10/27 07:55:30;;;;;;;6.80;3.50;;;;;;;12.01;94.35;101533.34;115875;1192;60205;-78
2021/10/27 07:57:57;;;;;;;5.30;2.90;;;;;;;12.03;94.31;101533.94;115732;1192;76436;-78
2021/10/27 08:00:26;;;;;;;5.60;3.30;;;;;;;12.07;94.19;101535.07;114817;1192;71035;-78
2021/10/27 08:02:54;;;;;;;7.70;3.10;;;;;;;12.08;93.92;101542.90;115703;1192;72539;-77
2021/10/27 08:05:22;;;;;;;9.00;2.90;;;;;;;12.11;93.92;101543.05;115861;1192;62344;-77
2021/10/27 08:07:50;;;;;;;4.60;2.60;;;;;;;12.15;93.81;101543.94;115748;1192;61673;-77
2021/10/27 08:10:21;;;;;;;4.20;2.80;;;;;;;12.18;93.71;101546.42;115893;1192;76584;-78
2021/10/27 08:12:49;;;;;;;12.60;2.60;;;;;;;12.21;93.37;101539.48;115878;1192;71192;-78
2021/10/27 08:15:19;;;;;;;4.40;2.50;;;;;;;12.26;93.18;101543.61;114575;1192;71535;-78
2021/10/27 08:17:45;;;;;;;4.80;2.60;;;;;;;12.31;92.91;101545.94;115661;1192;61685;-78
2021/10/27 08:20:15;;;;;;;6.30;2.80;;;;;;;12.36;92.68;101546.85;115826;1192;59591;-78
2021/10/27 08:22:45;;;;;;;5.90;2.80;;;;;;;12.40;92.42;101547.91;115902;1192;75515;-78
2021/10/27 08:25:23;;;;;;;4.80;2.80;;;;;;;12.47;92.31;101545.25;115881;1192;72111;-79
2021/10/27 08:27:50;;;;;;;4.70;2.50;;;;;;;12.52;91.97;101544.91;115888;1192;72797;-78
2021/10/27 08:30:19;;;;;;;4.50;2.10;;;;;;;12.57;91.54;101548.80;115908;1192;62867;-78
2021/10/27 08:32:52;;;;;;;4.90;2.00;;;;;;;12.62;91.17;101547.51;115904;1192;61218;-78
2021/10/27 08:35:19;;;;;;;4.30;2.90;;;;;;;12.69;91.13;101548.92;114957;1192;76031;-77
2021/10/27 08:37:48;;;;;;;6.00;2.30;;;;;;;12.74;90.61;101545.85;115898;1192;71107;-77
2021/10/27 08:40:19;;;;;;;3.40;2.20;;;;;;;12.82;90.25;101542.16;115848;1192;73844;-78
2021/10/27 08:42:47;;;;;;;6.00;2.30;;;;;;;12.89;89.93;101545.84;115775;1192;62989;-78
2021/10/27 08:45:15;;;;;;;3.20;2.00;;;;;;;12.97;89.68;101541.39;115915;1192;60189;-78
2021/10/27 08:47:46;;;;;;;4.10;2.40;;;;;;;13.04;89.04;101545.77;115883;1192;76535;-78
2021/10/27 08:50:14;;;;;;;6.70;2.30;;;;;;;13.11;88.57;101546.73;115708;1192;72622;-78
2021/10/27 08:52:42;;;;;;;6.50;3.00;;;;;;;13.21;88.52;101552.55;115312;1177;73634;-78
2021/10/27 08:55:11;;;;;;;4.70;2.60;;;;;;;13.28;87.73;101550.95;114819;1192;61757;-78
2021/10/27 08:57:39;;;;;;;4.20;3.00;;;;;;;13.35;87.12;101554.07;115830;1192;59801;-77
2021/10/27 09:00:27;;;;;;;4.60;2.80;;;;;;;13.43;86.83;101554.17;115910;1192;75436;-78
2021/10/27 09:36:55;;;;;;;5.60;2.70;;;;;;;14.61;79.45;101563.14;115731;1192;60061;-74
2021/10/27 10:04:07;;;;;;;2.70;2.00;;;;;;;15.24;76.18;101555.71;115715;1192;60584;-74
2021/10/27 10:06:51;;;;;;;7.40;1.90;;;;;;;15.26;75.76;101557.59;115868;1190;59915;-74
2021/10/27 10:09:18;;;;;;;5.40;1.80;;;;;;;15.27;75.90;101555.17;115572;1192;75807;-72
2021/10/27 10:11:46;;;;;;;4.50;1.70;;;;;;;15.25;75.64;101564.23;115306;1192;72655;-73
2021/10/27 10:14:13;;;;;;;8.10;1.70;;;;;;;15.24;75.58;101558.51;115772;1192;72516;-73
2021/10/27 10:16:50;;;;;;;5.30;2.60;;;;;;;15.26;75.90;101561.50;115864;1192;60533;-73
2021/10/27 10:19:21;;;;;;;3.00;2.00;;;;;;;15.26;75.80;101556.52;115868;1191;60702;-73
2021/10/27 10:21:52;;;;;;;5.40;2.40;;;;;;;15.23;75.67;101557.88;115861;1192;75631;-73
2021/10/27 10:24:21;;;;;;;3.00;1.80;;;;;;;15.22;75.52;101560.73;115086;1191;71110;-73
2021/10/27 10:27:26;;;;;;;4.20;1.90;;;;;;;15.17;75.47;101562.36;115854;1192;72882;-73
2021/10/27 10:29:56;;;;;;;4.20;1.70;;;;;;;15.15;75.66;101565.00;114490;1192;62881;-74
2021/10/27 10:32:34;;;;;;;4.80;1.50;;;;;;;15.13;76.00;101567.39;115821;1192;60684;-73
2021/10/27 10:35:11;;;;;;;4.70;1.70;;;;;;;15.08;76.17;101564.31;115888;1191;75529;-73
2021/10/27 10:38:28;;;;;;;5.80;1.50;;;;;;;15.07;76.41;101562.34;115862;1191;71527;-73
2021/10/27 10:40:42;;;;;;;5.10;1.60;;;;;;;15.10;76.68;101563.20;115762;1192;72882;-73
2021/10/27 10:43:39;;;;;;;2.10;1.30;;;;;;;15.10;76.34;101566.29;115881;1192;62067;-73
2021/10/27 11:23:10;;;;;;;2.50;1.10;;;;;;;15.11;73.64;101563.83;115888;1192;72564;-73
2021/10/27 11:26:10;;;;;;;5.10;1.10;;;;;;;15.18;73.76;101557.27;115729;1192;62069;-73
2021/10/27 11:37:43;;;;;;;2.10;0.80;;;;;;;15.37;72.22;101555.22;115914;1192;73689;-74
2021/10/27 11:40:39;;;;;;;2.40;0.70;;;;;;;15.39;72.27;101553.81;115823;1191;63461;-73
2021/10/27 11:43:17;;;;;;;4.50;1.10;;;;;;;15.39;71.34;101554.06;115863;1192;61692;-74
2021/10/27 11:48:35;;;;;;;2.30;1.00;;;;;;;15.37;71.13;101558.52;114816;1192;71319;-73
2021/10/27 11:51:11;;;;;;;9.50;1.40;;;;;;;15.36;70.81;101555.49;115466;1192;73667;-73
2021/10/27 11:53:39;;;;;;;3.70;0.80;;;;;;;15.38;70.77;101552.92;115843;1192;61001;-73
2021/10/27 11:56:15;;;;;;;3.00;1.00;;;;;;;15.40;70.33;101551.80;115870;1192;62639;-73
2021/10/27 11:58:45;;;;;;;3.10;0.80;;;;;;;15.43;70.11;101548.39;115751;1192;76509;-74
2021/10/27 12:01:48;;;;;;;2.40;0.60;;;;;;;15.44;69.61;101548.91;115672;1192;70960;-74
2021/10/27 12:04:17;;;;;;;3.40;1.30;;;;;;;15.48;69.75;101544.89;115610;1192;73122;-74
2021/10/27 12:07:38;;;;;;;3.50;0.70;;;;;;;15.51;69.86;101546.36;115707;1192;61653;-73
2021/10/27 12:12:34;;;;;;;4.40;0.90;;;;;;;15.64;68.90;101533.69;114956;1192;75440;-73
2021/10/27 12:17:59;;;;;;;3.70;0.80;;;;;;;15.86;67.95;101528.36;115683;1192;72654;-73
2021/10/27 12:20:44;;;;;;;2.70;0.70;;;;;;;15.94;67.79;101526.67;115864;1191;61265;-73
2021/10/27 12:23:18;;;;;;;0.90;0.50;;;;;;;16.01;67.15;101533.37;115619;1192;61915;-73
2021/10/27 12:25:46;;;;;;;2.40;1.20;;;;;;;16.04;67.19;101521.59;115714;1192;75590;-73
2021/10/27 12:28:29;;;;;;;3.60;0.80;;;;;;;16.10;67.23;101520.08;115698;1192;72095;-73
2021/10/27 12:30:56;;;;;;;6.00;0.70;;;;;;;16.10;66.63;101526.11;115445;1192;73157;-73
2021/10/27 12:33:42;;;;;;;1.60;0.60;;;;;;;16.09;66.61;101522.00;115443;1192;61699;-73
2021/10/27 12:36:35;;;;;;;3.40;0.70;;;;;;;16.11;66.52;101519.77;115726;1192;61808;-73
2021/10/27 12:42:05;;;;;;;4.80;1.00;;;;;;;16.22;66.07;101514.60;115714;1192;71711;-73
2021/10/27 12:44:33;;;;;;;3.20;1.10;;;;;;;16.41;65.46;101510.09;115775;1192;72533;-73
2021/10/27 12:47:14;;;;;;;3.40;1.30;;;;;;;16.74;64.52;101510.43;115837;1192;59699;-73
2021/10/27 12:49:43;;;;;;;1.50;0.70;;;;;;;17.02;63.34;101511.17;115492;1191;60233;-73
2021/10/27 12:52:27;;;;;;;3.10;0.70;;;;;;;17.42;62.34;101512.27;115517;1191;75877;-73
2021/10/27 12:55:11;;;;;;;1.80;0.60;;;;;;;17.62;61.69;101506.77;115623;1191;72204;-73
2021/10/27 12:57:50;;;;;;;2.50;0.70;;;;;;;17.60;61.07;101507.09;115710;1192;73674;-73
2021/10/27 13:03:42;;;;;;;3.20;0.90;;;;;;;17.98;59.58;101504.23;115685;1192;60246;-74
2021/10/27 13:09:13;;;;;;;3.00;0.80;;;;;;;18.04;58.87;101499.95;115749;1192;71209;-73
2021/10/27 13:30:23;;;;;;;1.80;0.70;;;;;;;17.13;61.42;101495.92;115497;1192;60321;-74
2021/10/27 13:32:52;;;;;;;3.40;0.80;;;;;;;17.02;61.93;101496.36;115301;1192;75082;-74
2021/10/27 13:35:22;;;;;;;1.80;0.70;;;;;;;16.91;62.61;101496.30;115208;1192;71061;-73
2021/10/27 13:37:49;;;;;;;3.10;0.80;;;;;;;16.79;63.00;101498.52;115661;1192;72657;-74
2021/10/27 13:40:17;;;;;;;5.50;1.00;;;;;;;16.70;63.78;101501.09;115648;1192;59953;-74
2021/10/27 13:42:46;;;;;;;3.30;0.90;;;;;;;16.58;63.73;101497.95;115716;1192;61298;-74
2021/10/27 13:47:58;;;;;;;2.10;1.00;;;;;;;16.35;64.34;101493.60;115661;1192;72008;-74
2021/10/27 13:59:09;;;;;;;1.70;0.70;;;;;;;16.39;64.57;101488.74;115616;1186;75365;-73
2021/10/27 14:07:22;;;;;;;2.40;1.20;;;;;;;17.25;63.13;101486.33;115624;1191;60350;-73
2021/10/27 14:12:37;;;;;;;3.80;1.10;;;;;;;18.50;60.20;101481.80;115391;1192;75549;-74
2021/10/27 14:15:22;;;;;;;3.20;1.00;;;;;;;18.98;58.21;101486.05;115664;1192;71083;-73
2021/10/27 14:18:11;;;;;;;5.40;1.40;;;;;;;19.04;57.51;101485.10;115728;1192;72931;-74
2021/10/27 14:40:00;;;;;;;;;;;;;;;17.66;60.35;101468.30;115784;1192;75242;-73
2021/10/27 14:48:12;;;;;;;4.20;0.80;;;;;;;16.70;63.92;101456.95;115340;1191;60459;-73
2021/10/27 15:19:34;;;;;;;3.20;1.20;;;;;;;16.00;66.73;101450.61;115707;1192;60054;-73
2021/10/27 15:19:35;;;;;;;3.60;0.70;;;;;;;15.62;68.64;101451.64;115725;1191;62060;-73
2021/10/27 15:21:12;;;;;;;1.60;0.80;;;;;;;15.48;69.59;101446.11;115708;1192;75357;-75
2021/10/27 15:24:10;;;;;;;2.10;0.70;;;;;;;15.42;70.04;101445.27;115737;1191;71034;-76
2021/10/27 15:29:21;;;;;;;3.10;0.80;;;;;;;15.28;71.31;101447.56;115647;1192;61716;-74
2021/10/27 15:43:47;;;;;;;2.30;1.40;;;;;;;15.01;73.18;101446.86;115694;1192;61184;-72